createdAt,value
2022-12-03T00:00:26.860Z,17.77
2022-12-03T00:02:53.404Z,16.35
2022-12-03T00:05:20.041Z,18.50
2022-12-03T00:07:46.516Z,16.00
2022-12-03T00:10:13.145Z,15.87
2022-12-03T00:12:39.828Z,9.63
2022-12-03T00:15:07.317Z,16.58
2022-12-03T00:17:33.856Z,18.55
2022-12-03T00:20:00.315Z,7.57
2022-12-03T00:22:26.997Z,16.37
2022-12-03T00:24:53.810Z,17.25
2022-12-03T00:27:20.539Z,15.57
2022-12-03T00:29:47.314Z,16.00
2022-12-03T00:32:14.286Z,18.15
2022-12-03T00:34:40.728Z,12.37
2022-12-03T00:37:07.217Z,16.80
2022-12-03T00:39:33.699Z,16.48
2022-12-03T00:42:00.160Z,17.33
2022-12-03T00:44:27.040Z,19.23
2022-12-03T00:46:53.516Z,15.77
2022-12-03T00:49:20.140Z,16.13
2022-12-03T00:51:46.551Z,20.33
2022-12-03T00:54:13.000Z,17.40
2022-12-03T00:56:39.451Z,19.50
2022-12-03T00:59:05.866Z,18.07
2022-12-03T01:01:32.406Z,18.40
2022-12-03T01:03:58.912Z,15.55
2022-12-03T01:06:25.408Z,15.95
2022-12-03T01:08:52.023Z,16.33
2022-12-03T01:11:36.853Z,15.70
2022-12-03T01:14:10.427Z,22.40
2022-12-03T01:16:37.698Z,16.60
2022-12-03T01:19:05.752Z,17.95
2022-12-03T01:21:32.569Z,15.57
2022-12-03T01:23:59.081Z,19.23
2022-12-03T01:26:25.697Z,21.15
2022-12-03T01:28:53.184Z,17.70
2022-12-03T01:31:38.947Z,20.17
2022-12-03T01:34:05.892Z,17.67
2022-12-03T01:36:34.250Z,18.07
2022-12-03T01:39:01.571Z,23.80
2022-12-03T01:41:28.510Z,18.08
2022-12-03T01:43:56.317Z,21.30
2022-12-03T01:46:25.795Z,13.75
2022-12-03T01:48:55.235Z,18.93
2022-12-03T01:51:22.468Z,16.92
2022-12-03T01:53:49.307Z,17.98
2022-12-03T01:56:18.010Z,11.43
2022-12-03T01:58:46.358Z,17.58
2022-12-03T02:01:16.150Z,18.23
2022-12-03T02:03:44.047Z,19.10
2022-12-03T02:06:21.592Z,19.15
2022-12-03T02:08:49.202Z,16.65
2022-12-03T02:11:27.808Z,14.20
2022-12-03T02:14:06.181Z,14.20
2022-12-03T02:16:35.330Z,20.70
2022-12-03T02:19:02.275Z,13.85
2022-12-03T02:21:50.859Z,17.40
2022-12-03T02:24:33.378Z,13.98
2022-12-03T02:26:59.877Z,17.50
2022-12-03T02:29:26.661Z,16.35
2022-12-03T02:31:53.199Z,22.35
2022-12-03T02:34:40.118Z,16.27
2022-12-03T02:37:10.994Z,18.45
2022-12-03T02:39:40.097Z,20.87
2022-12-03T02:42:25.842Z,13.27
2022-12-03T02:44:53.609Z,16.02
2022-12-03T02:47:22.391Z,17.65
2022-12-03T02:49:50.024Z,19.05
2022-12-03T02:52:16.702Z,17.43
2022-12-03T02:54:43.663Z,15.85
2022-12-03T02:57:10.334Z,20.33
2022-12-03T02:59:37.093Z,14.57
2022-12-03T03:02:03.898Z,18.95
2022-12-03T03:04:30.710Z,17.73
2022-12-03T03:06:57.297Z,14.27
2022-12-03T03:09:24.008Z,14.52
2022-12-03T03:11:50.461Z,18.00
2022-12-03T03:14:17.071Z,19.10
2022-12-03T03:16:43.789Z,12.40
2022-12-03T03:19:10.460Z,18.17
2022-12-03T03:21:36.904Z,14.68
2022-12-03T03:24:04.172Z,16.67
2022-12-03T03:26:30.779Z,20.02
2022-12-03T03:28:59.982Z,20.57
2022-12-03T03:31:26.526Z,19.48
2022-12-03T03:33:53.161Z,18.65
2022-12-03T03:36:20.145Z,18.42
2022-12-03T03:38:47.456Z,18.48
2022-12-03T03:41:15.804Z,23.07
2022-12-03T03:43:44.216Z,20.00
2022-12-03T03:46:12.380Z,22.23
2022-12-03T03:48:40.785Z,19.52
2022-12-03T03:51:09.658Z,22.52
2022-12-03T03:53:42.947Z,20.97
2022-12-03T03:56:10.748Z,21.52
2022-12-03T03:58:38.323Z,19.70
2022-12-03T04:01:05.032Z,20.45
2022-12-03T04:03:31.781Z,18.38
2022-12-03T04:05:58.457Z,17.60
2022-12-03T04:08:24.956Z,17.70
2022-12-03T04:11:10.178Z,20.80
2022-12-03T04:13:36.634Z,21.23
2022-12-03T04:16:03.436Z,18.20
2022-12-03T04:18:45.279Z,19.07
2022-12-03T04:21:32.246Z,19.35
2022-12-03T04:23:58.862Z,22.25
2022-12-03T04:26:43.745Z,21.13
2022-12-03T04:29:10.740Z,18.77
2022-12-03T04:31:55.747Z,20.50
2022-12-03T04:34:40.881Z,17.15
2022-12-03T04:37:07.478Z,18.95
2022-12-03T04:39:34.129Z,21.52
2022-12-03T04:42:00.624Z,12.45
2022-12-03T04:44:39.170Z,21.77
2022-12-03T04:47:08.649Z,23.70
2022-12-03T04:49:38.264Z,22.38
2022-12-03T04:52:05.529Z,18.20
2022-12-03T04:54:32.179Z,20.85
2022-12-03T04:56:58.648Z,21.87
2022-12-03T04:59:25.120Z,20.52
2022-12-03T05:01:51.692Z,21.00
2022-12-03T05:04:18.301Z,20.13
2022-12-03T05:06:44.807Z,24.13
2022-12-03T05:09:11.781Z,19.30
2022-12-03T05:11:38.671Z,21.23
2022-12-03T05:14:05.663Z,19.23
2022-12-03T05:16:32.249Z,24.00
2022-12-03T05:18:58.833Z,24.88
2022-12-03T05:21:25.405Z,23.60
2022-12-03T05:23:51.935Z,23.65
2022-12-03T05:26:18.508Z,18.05
2022-12-03T05:28:45.124Z,20.58
2022-12-03T05:31:11.689Z,22.83
2022-12-03T05:33:43.790Z,22.87
2022-12-03T05:36:10.915Z,21.65
2022-12-03T05:38:37.479Z,24.25
2022-12-03T05:41:24.286Z,25.23
2022-12-03T05:43:50.896Z,25.08
2022-12-03T05:46:17.405Z,24.37
2022-12-03T05:48:44.138Z,24.10
2022-12-03T05:51:10.668Z,26.55
2022-12-03T05:53:37.206Z,27.98
2022-12-03T05:56:03.843Z,22.55
2022-12-03T05:58:30.364Z,26.97
2022-12-03T06:00:56.824Z,27.58
2022-12-03T06:03:23.625Z,27.50
2022-12-03T06:05:50.164Z,27.80
2022-12-03T06:08:16.737Z,26.23
2022-12-03T06:10:43.268Z,21.87
2022-12-03T06:13:09.693Z,22.17
2022-12-03T06:15:41.953Z,24.25
2022-12-03T06:18:10.090Z,22.75
2022-12-03T06:20:36.543Z,27.80
2022-12-03T06:23:03.010Z,19.73
2022-12-03T06:25:29.529Z,23.33
2022-12-03T06:27:55.980Z,25.90
2022-12-03T06:30:22.429Z,25.48
2022-12-03T06:32:48.941Z,29.73
2022-12-03T06:35:15.574Z,21.83
2022-12-03T06:37:42.060Z,22.10
2022-12-03T06:40:09.109Z,24.88
2022-12-03T06:42:35.555Z,22.20
2022-12-03T06:45:02.048Z,19.67
2022-12-03T06:47:28.545Z,16.97
2022-12-03T06:49:55.071Z,25.60
2022-12-03T06:52:21.537Z,20.98
2022-12-03T06:54:47.983Z,26.92
2022-12-03T06:57:14.489Z,25.70
2022-12-03T06:59:40.976Z,19.90
2022-12-03T07:02:07.541Z,24.55
2022-12-03T07:04:34.080Z,20.67
2022-12-03T07:07:00.697Z,18.52
2022-12-03T07:09:27.543Z,28.00
2022-12-03T07:11:54.006Z,24.57
2022-12-03T07:14:20.591Z,20.88
2022-12-03T07:16:47.646Z,28.13
2022-12-03T07:19:14.353Z,16.58
2022-12-03T07:21:40.952Z,24.00
2022-12-03T07:24:07.741Z,21.07
2022-12-03T07:26:34.376Z,22.48
2022-12-03T07:29:00.938Z,16.23
2022-12-03T07:31:27.627Z,17.98
2022-12-03T07:33:54.141Z,21.17
2022-12-03T07:36:20.739Z,23.80
2022-12-03T07:38:47.246Z,25.10
2022-12-03T07:41:13.704Z,24.10
2022-12-03T07:43:40.169Z,22.88
2022-12-03T07:46:06.670Z,19.67
2022-12-03T07:48:33.147Z,21.27
2022-12-03T07:50:59.760Z,26.63
2022-12-03T07:53:26.252Z,23.33
2022-12-03T07:55:53.304Z,21.90
2022-12-03T07:58:19.873Z,22.08
2022-12-03T08:00:48.565Z,24.93
2022-12-03T08:03:15.108Z,27.33
2022-12-03T08:05:41.532Z,24.65
2022-12-03T08:08:08.137Z,26.80
2022-12-03T08:10:34.937Z,23.88
2022-12-03T08:13:05.028Z,21.33
2022-12-03T08:15:37.267Z,20.13
2022-12-03T08:18:15.983Z,21.20
2022-12-03T08:20:45.335Z,21.08
2022-12-03T08:23:15.118Z,23.95
2022-12-03T08:25:42.480Z,25.50
2022-12-03T08:28:14.343Z,22.25
2022-12-03T08:30:42.757Z,22.77
2022-12-03T08:33:17.871Z,18.50
2022-12-03T08:35:50.805Z,19.33
2022-12-03T08:38:19.959Z,23.93
2022-12-03T08:40:48.626Z,22.55
2022-12-03T08:43:25.435Z,28.50
2022-12-03T08:45:54.410Z,24.33
2022-12-03T08:48:38.216Z,26.50
2022-12-03T08:51:12.982Z,22.17
2022-12-03T08:53:46.491Z,23.65
2022-12-03T08:56:21.626Z,21.42
2022-12-03T08:58:52.569Z,26.27
2022-12-03T09:01:42.817Z,28.58
2022-12-03T09:04:21.610Z,22.90
2022-12-03T09:06:48.710Z,22.75
2022-12-03T09:09:15.361Z,25.85
2022-12-03T09:11:43.327Z,24.40
2022-12-03T09:14:15.136Z,20.92
2022-12-03T09:16:44.861Z,24.50
2022-12-03T09:19:11.393Z,24.35
2022-12-03T09:21:37.881Z,21.65
2022-12-03T09:24:04.628Z,27.27
2022-12-03T09:26:31.057Z,28.35
2022-12-03T09:28:57.570Z,23.93
2022-12-03T09:31:24.354Z,23.63
2022-12-03T09:33:51.010Z,27.00
2022-12-03T09:36:17.514Z,20.92
2022-12-03T09:38:47.754Z,28.85
2022-12-03T09:41:14.854Z,29.63
2022-12-03T09:46:29.846Z,27.40
2022-12-03T09:48:56.722Z,25.70
2022-12-03T09:51:27.982Z,26.23
2022-12-03T09:53:54.521Z,26.13
2022-12-03T09:56:23.576Z,27.15
2022-12-03T09:58:50.452Z,25.05
2022-12-03T10:01:17.665Z,23.85
2022-12-03T10:03:52.458Z,22.75
2022-12-03T10:06:23.909Z,10.70
2022-12-03T10:08:54.396Z,27.08
2022-12-03T10:11:24.168Z,27.15
2022-12-03T10:13:51.190Z,21.05
2022-12-03T10:16:20.912Z,26.75
2022-12-03T10:18:51.490Z,27.67
2022-12-03T10:21:24.209Z,31.60
2022-12-03T10:24:19.216Z,19.77
2022-12-03T10:26:47.388Z,26.52
2022-12-03T10:29:17.925Z,26.70
2022-12-03T10:31:45.126Z,26.07
2022-12-03T10:34:11.882Z,28.63
2022-12-03T10:36:38.364Z,24.08
2022-12-03T10:39:09.585Z,26.05
2022-12-03T10:41:37.740Z,28.30
2022-12-03T10:44:22.389Z,26.60
2022-12-03T10:47:07.364Z,30.90
2022-12-03T10:49:34.946Z,26.80
2022-12-03T10:52:02.176Z,23.60
2022-12-03T10:54:31.223Z,25.50
2022-12-03T10:56:57.880Z,29.73
2022-12-03T10:59:28.315Z,22.40
2022-12-03T11:01:54.781Z,26.55
2022-12-03T11:04:35.353Z,24.77
2022-12-03T11:07:03.409Z,20.70
2022-12-03T11:09:32.324Z,29.10
2022-12-03T11:12:07.604Z,25.67
2022-12-03T11:14:54.690Z,27.33
2022-12-03T11:17:46.985Z,20.27
2022-12-03T11:20:36.115Z,30.27
2022-12-03T11:23:02.609Z,24.77
2022-12-03T11:25:29.191Z,26.73
2022-12-03T11:28:14.058Z,26.60
2022-12-03T11:30:56.808Z,27.45
2022-12-03T11:33:29.233Z,18.15
2022-12-03T11:36:05.336Z,22.00
2022-12-03T11:38:38.234Z,19.65
2022-12-03T11:41:32.012Z,19.77
2022-12-03T11:43:59.560Z,19.38
2022-12-03T11:46:41.994Z,17.35
2022-12-03T11:49:39.457Z,21.37
2022-12-03T11:52:22.085Z,15.98
2022-12-03T11:54:53.274Z,15.18
2022-12-03T11:57:45.466Z,13.70
2022-12-03T12:00:23.462Z,16.45
2022-12-03T12:02:52.285Z,8.30
2022-12-03T12:05:32.633Z,13.45
2022-12-03T12:08:01.244Z,14.30
2022-12-03T12:10:41.986Z,13.10
2022-12-03T12:13:30.364Z,12.73
2022-12-03T12:15:58.330Z,17.50
2022-12-03T12:18:33.996Z,13.45
2022-12-03T12:21:38.809Z,15.10
2022-12-03T12:24:47.378Z,16.88
2022-12-03T12:27:30.671Z,11.85
2022-12-03T12:29:59.805Z,16.60
2022-12-03T12:32:26.475Z,15.82
2022-12-03T12:34:57.825Z,15.02
2022-12-03T12:37:33.778Z,18.58
2022-12-03T12:40:06.445Z,20.38
2022-12-03T12:42:38.438Z,14.80
2022-12-03T12:45:17.373Z,18.60
2022-12-03T12:47:56.520Z,17.40
2022-12-03T12:50:23.021Z,17.95
2022-12-03T12:52:52.692Z,21.13
2022-12-03T12:55:19.353Z,19.77
2022-12-03T12:57:46.225Z,21.00
2022-12-03T13:00:22.198Z,12.35
2022-12-03T13:03:11.168Z,19.08
2022-12-03T13:05:43.164Z,27.27
2022-12-03T13:08:20.936Z,25.50
2022-12-03T13:10:47.758Z,16.98
2022-12-03T13:13:31.016Z,18.40
2022-12-03T13:15:59.704Z,20.20
2022-12-03T13:18:48.418Z,19.30
2022-12-03T13:21:36.211Z,16.53
2022-12-03T13:24:10.353Z,19.95
2022-12-03T13:26:39.751Z,24.38
2022-12-03T13:29:18.450Z,20.85
2022-12-03T13:32:16.003Z,29.10
2022-12-03T13:34:42.784Z,26.30
2022-12-03T13:37:14.308Z,36.20
2022-12-03T13:39:47.621Z,34.50
2022-12-03T13:42:39.452Z,33.42
2022-12-03T13:45:15.088Z,28.88
2022-12-03T13:47:43.791Z,22.30
2022-12-03T13:50:40.938Z,32.85
2022-12-03T13:53:23.543Z,24.33
2022-12-03T13:56:16.187Z,28.92
2022-12-03T13:58:42.645Z,24.98
2022-12-03T14:01:09.256Z,28.67
2022-12-03T14:03:35.692Z,37.40
2022-12-03T14:06:02.140Z,39.97
2022-12-03T14:08:28.586Z,23.90
2022-12-03T14:11:00.538Z,37.28
2022-12-03T14:13:27.338Z,24.50
2022-12-03T14:15:53.996Z,33.65
2022-12-03T14:18:20.572Z,27.60
2022-12-03T14:20:48.230Z,33.00
2022-12-03T14:23:14.927Z,24.27
2022-12-03T14:25:43.816Z,27.80
2022-12-03T14:28:10.796Z,27.70
2022-12-03T14:30:37.483Z,29.00
2022-12-03T14:33:04.803Z,39.22
2022-12-03T14:35:31.294Z,31.92
2022-12-03T14:37:57.817Z,24.33
2022-12-03T14:40:24.419Z,27.23
2022-12-03T14:42:50.964Z,24.20
2022-12-03T14:45:17.490Z,25.75
2022-12-03T14:47:44.023Z,30.35
2022-12-03T14:50:14.551Z,22.87
2022-12-03T14:52:41.401Z,19.75
2022-12-03T14:55:08.341Z,20.73
2022-12-03T14:57:34.902Z,17.98
2022-12-03T15:00:01.446Z,25.70
2022-12-03T15:02:28.951Z,22.70
2022-12-03T15:04:55.510Z,26.55
2022-12-03T15:07:22.060Z,21.00
2022-12-03T15:09:48.654Z,22.05
2022-12-03T15:12:15.124Z,23.38
2022-12-03T15:14:42.486Z,20.23
2022-12-03T15:17:09.089Z,21.05
2022-12-03T15:19:35.655Z,24.77
2022-12-03T15:22:02.147Z,22.15
2022-12-03T15:24:28.860Z,15.35
2022-12-03T15:26:55.929Z,33.70
2022-12-03T15:29:23.066Z,18.30
2022-12-03T15:31:49.733Z,21.48
2022-12-03T15:34:22.128Z,19.98
2022-12-03T15:36:48.846Z,18.45
2022-12-03T15:39:15.342Z,24.67
2022-12-03T15:41:41.808Z,24.17
2022-12-03T15:44:08.336Z,27.25
2022-12-03T15:46:34.899Z,35.35
2022-12-03T15:49:01.412Z,30.80
2022-12-03T15:51:27.980Z,21.30
2022-12-03T15:53:54.448Z,28.55
2022-12-03T15:56:21.029Z,34.97
2022-12-03T15:58:47.681Z,30.02
2022-12-03T16:01:14.517Z,31.60
2022-12-03T16:03:41.830Z,34.40
2022-12-03T16:06:10.606Z,30.40
2022-12-03T16:08:37.142Z,36.28
2022-12-03T16:11:03.691Z,37.17
2022-12-03T16:13:30.200Z,39.63
2022-12-03T16:15:56.677Z,29.70
2022-12-03T16:18:23.221Z,30.52
2022-12-03T16:20:49.905Z,34.60
2022-12-03T16:23:16.329Z,36.50
2022-12-03T16:25:42.859Z,34.65
2022-12-03T16:28:09.398Z,22.13
2022-12-03T16:30:36.316Z,33.47
2022-12-03T16:33:02.892Z,38.67
2022-12-03T16:35:29.504Z,35.08
2022-12-03T16:37:56.071Z,35.75
2022-12-03T16:40:22.530Z,36.87
2022-12-03T16:42:49.056Z,39.92
2022-12-03T16:45:21.533Z,35.50
2022-12-03T16:47:48.141Z,36.58
2022-12-03T16:50:21.903Z,32.85
2022-12-03T16:52:54.062Z,30.80
2022-12-03T16:55:20.479Z,32.58
2022-12-03T16:57:47.010Z,34.60
2022-12-03T17:00:14.245Z,31.40
2022-12-03T17:02:40.821Z,30.42
2022-12-03T17:05:07.641Z,33.27
2022-12-03T17:07:34.287Z,38.60
2022-12-03T17:10:00.848Z,37.00
2022-12-03T17:12:37.440Z,32.35
2022-12-03T17:15:13.990Z,31.60
2022-12-03T17:17:40.471Z,34.73
2022-12-03T17:20:08.269Z,20.63
2022-12-03T17:22:34.810Z,31.45
2022-12-03T17:25:01.328Z,30.13
2022-12-03T17:27:27.881Z,36.60
2022-12-03T17:29:54.522Z,39.60
2022-12-03T17:32:21.236Z,37.10
2022-12-03T17:34:47.653Z,37.80
2022-12-03T17:37:14.130Z,32.00
2022-12-03T17:39:40.659Z,30.08
2022-12-03T17:42:07.334Z,31.17
2022-12-03T17:44:33.841Z,34.20
2022-12-03T17:47:00.390Z,36.08
2022-12-03T17:49:31.319Z,27.75
2022-12-03T17:51:58.406Z,32.22
2022-12-03T17:54:34.102Z,32.50
2022-12-03T17:57:11.574Z,32.00
2022-12-03T17:59:38.051Z,37.50
2022-12-03T18:02:04.688Z,39.40
2022-12-03T18:04:31.316Z,37.13
2022-12-03T18:07:02.110Z,31.23
2022-12-03T18:09:29.041Z,42.92
2022-12-03T18:11:55.577Z,31.10
2022-12-03T18:14:22.029Z,24.70
2022-12-03T18:16:48.514Z,28.38
2022-12-03T18:19:30.098Z,36.93
2022-12-03T18:21:56.663Z,34.80
2022-12-03T18:24:23.779Z,38.22
2022-12-03T18:26:50.548Z,24.98
2022-12-03T18:29:17.190Z,35.10
2022-12-03T18:31:43.704Z,30.60
2022-12-03T18:34:10.215Z,39.80
2022-12-03T18:36:37.026Z,37.33
2022-12-03T18:39:05.990Z,26.25
2022-12-03T18:41:33.424Z,41.20
2022-12-03T18:44:03.535Z,33.53
2022-12-03T18:46:53.507Z,38.50
2022-12-03T18:49:17.702Z,34.47
2022-12-03T18:51:44.211Z,34.92
2022-12-03T18:54:14.054Z,37.85
2022-12-03T18:56:41.323Z,28.27
2022-12-03T18:59:08.283Z,33.20
2022-12-03T19:01:35.235Z,29.27
2022-12-03T19:04:02.319Z,29.90
2022-12-03T19:06:30.580Z,28.90
2022-12-03T19:08:57.712Z,29.67
2022-12-03T19:11:24.524Z,27.55
2022-12-03T19:13:51.834Z,25.80
2022-12-03T19:16:19.026Z,31.02
2022-12-03T19:18:45.882Z,30.20
2022-12-03T19:21:14.864Z,20.77
2022-12-03T19:23:47.223Z,31.00
2022-12-03T19:26:21.070Z,34.83
2022-12-03T19:28:47.591Z,30.63
2022-12-03T19:31:16.572Z,29.15
2022-12-03T19:33:44.063Z,23.30
2022-12-03T19:36:22.569Z,36.63
2022-12-03T19:38:56.673Z,31.88
2022-12-03T19:41:26.581Z,27.27
2022-12-03T19:43:55.330Z,30.40
2022-12-03T19:46:24.170Z,32.27
2022-12-03T19:48:50.989Z,28.98
2022-12-03T19:51:33.704Z,33.30
2022-12-03T19:54:02.066Z,26.55
2022-12-03T19:56:30.242Z,35.53
2022-12-03T19:58:57.636Z,32.83
2022-12-03T20:01:27.863Z,28.80
2022-12-03T20:03:56.746Z,27.90
2022-12-03T20:06:26.056Z,31.05
2022-12-03T20:09:01.203Z,26.83
2022-12-03T20:11:30.865Z,30.20
2022-12-03T20:14:16.552Z,29.48
2022-12-03T20:16:44.348Z,32.92
2022-12-03T20:19:13.480Z,20.90
2022-12-03T20:21:40.149Z,27.15
2022-12-03T20:24:08.110Z,27.67
2022-12-03T20:26:34.784Z,27.67
2022-12-03T20:29:01.831Z,33.67
2022-12-03T20:31:30.897Z,26.83
2022-12-03T20:34:00.279Z,33.50
2022-12-03T20:36:28.453Z,33.60
2022-12-03T20:38:57.375Z,20.95
2022-12-03T20:41:24.474Z,29.92
2022-12-03T20:43:51.727Z,23.38
2022-12-03T20:46:29.506Z,29.25
2022-12-03T20:48:57.249Z,18.43
2022-12-03T20:51:26.605Z,27.60
2022-12-03T20:53:53.519Z,30.63
2022-12-03T20:56:26.666Z,25.75
2022-12-03T20:58:53.753Z,27.02
2022-12-03T21:01:26.568Z,23.33
2022-12-03T21:03:55.314Z,26.75
2022-12-03T21:06:23.682Z,19.90
2022-12-03T21:08:52.403Z,26.50
2022-12-03T21:11:23.912Z,30.23
2022-12-03T21:13:50.784Z,28.67
2022-12-03T21:16:34.135Z,30.20
2022-12-03T21:19:07.785Z,25.20
2022-12-03T21:21:35.451Z,31.50
2022-12-03T21:24:02.073Z,33.83
2022-12-03T21:26:28.593Z,27.07
2022-12-03T21:28:55.513Z,28.42
2022-12-03T21:31:25.767Z,30.00
2022-12-03T21:33:56.619Z,26.33
2022-12-03T21:36:24.680Z,28.42
2022-12-03T21:38:51.624Z,27.80
2022-12-03T21:41:18.268Z,31.45
2022-12-03T21:43:45.046Z,27.33
2022-12-03T21:47:12.137Z,24.75
2022-12-03T21:49:01.523Z,28.63
2022-12-03T21:51:28.131Z,31.03
2022-12-03T21:53:54.845Z,27.08
2022-12-03T21:56:21.552Z,27.30
2022-12-03T21:58:48.096Z,34.65
2022-12-03T22:01:19.110Z,25.90
2022-12-03T22:03:46.257Z,34.07
2022-12-03T22:06:13.264Z,23.67
2022-12-03T22:08:40.372Z,32.92
2022-12-03T22:11:09.715Z,25.83
2022-12-03T22:13:38.527Z,35.55
2022-12-03T22:16:10.424Z,24.57
2022-12-03T22:18:37.299Z,29.15
2022-12-03T22:21:09.313Z,25.05
2022-12-03T22:23:35.829Z,30.98
2022-12-03T22:26:05.064Z,32.85
2022-12-03T22:28:32.491Z,28.20
2022-12-03T22:30:59.124Z,34.40
2022-12-03T22:33:25.681Z,28.85
2022-12-03T22:36:03.883Z,33.08
2022-12-03T22:38:31.795Z,31.00
2022-12-03T22:40:59.907Z,31.47
2022-12-03T22:43:26.660Z,28.88
2022-12-03T22:45:54.763Z,30.70
2022-12-03T22:48:22.198Z,27.88
2022-12-03T22:50:49.494Z,30.77
2022-12-03T22:53:16.071Z,31.57
2022-12-03T22:55:42.626Z,30.50
2022-12-03T22:58:09.997Z,35.38
2022-12-03T23:00:39.207Z,32.28
2022-12-03T23:03:06.969Z,25.88
2022-12-03T23:05:36.848Z,33.47
2022-12-03T23:08:05.289Z,29.75
2022-12-03T23:10:36.840Z,26.45
2022-12-03T23:13:04.721Z,36.88
2022-12-03T23:15:32.368Z,33.35
2022-12-03T23:17:59.014Z,32.30
2022-12-03T23:20:26.371Z,32.55
2022-12-03T23:22:53.335Z,34.28
2022-12-03T23:25:20.439Z,33.55
2022-12-03T23:27:47.434Z,31.80
2022-12-03T23:30:15.769Z,35.23
2022-12-03T23:32:44.517Z,37.78
2022-12-03T23:35:12.186Z,15.90
2022-12-03T23:37:38.718Z,32.97
2022-12-03T23:40:05.998Z,33.05
2022-12-03T23:42:32.506Z,34.00
2022-12-03T23:44:59.033Z,30.85
2022-12-03T23:47:25.489Z,33.03
2022-12-03T23:49:52.196Z,38.60
2022-12-03T23:52:18.774Z,33.22
2022-12-03T23:54:45.521Z,30.23
2022-12-03T23:57:12.838Z,33.65
2022-12-03T23:59:39.732Z,34.03
